Latest Weather Observations for St Kilda Harbour RMYS

IDV60801

Issued at 4:05 pm EDT Wednesday 26 November 2014 (issued every 30 minutes, with the page automatically refreshed every 10 minutes)

About weather observations | Map of weather stations | Latest weather observations for VIC | Other Formats
Station Details ID: 086220 Name: ST KILDA HARBOUR - RMYS Lat: -37.86 Lon: 144.96 Height: 6.4 m
Data from the previous 72 hours. | See also: Recent months for locations in Victoria
Date/Time
EDT
Temp
°C
App
Temp
°C
Dew
Point
Rel
Hum
%
Delta-T
°C
Wind Press
QNH
hPa
Press
MSL
hPa
Rain
since 9 am
mm
Dir
 
Spd
km/h
Gust
km/h
Spd
kts
Gust
kts
26/04:00pm - - - - - S 33 41 18 22 - - -
26/03:30pm - - - - - S 30 39 16 21 - - -
26/03:00pm - - - - - S 24 30 13 16 - - -
26/02:30pm - - - - - SSE 17 20 9 11 - - -
26/02:00pm - - - - - SSE 13 17 7 9 - - -
26/01:30pm - - - - - S 15 17 8 9 - - -
26/01:00pm - - - - - SSW 13 19 7 10 - - -
26/12:30pm - - - - - S 9 13 5 7 - - -
26/12:00pm - - - - - S 9 15 5 8 - - -
26/11:30am - - - - - SSW 13 19 7 10 - - -
26/11:00am - - - - - SW 11 17 6 9 - - -
26/10:30am - - - - - SW 19 28 10 15 - - -
26/10:00am - - - - - WSW 19 24 10 13 - - -
26/09:30am - - - - - W 17 20 9 11 - - -
26/09:00am - - - - - W 17 22 9 12 - - -
26/08:30am - - - - - W 13 19 7 10 - - -
26/08:00am - - - - - W 13 19 7 10 - - -
26/07:30am - - - - - W 17 22 9 12 - - -
26/07:00am - - - - - W 17 22 9 12 - - -
26/06:30am - - - - - W 17 20 9 11 - - -
26/06:00am - - - - - WNW 17 20 9 11 - - -
26/05:30am - - - - - WNW 19 22 10 12 - - -
26/05:00am - - - - - WNW 17 22 9 12 - - -
26/04:30am - - - - - WNW 17 22 9 12 - - -
26/04:00am - - - - - WNW 19 22 10 12 - - -
26/03:30am - - - - - WNW 17 20 9 11 - - -
26/03:00am - - - - - W 17 22 9 12 - - -
26/02:30am - - - - - WNW 17 20 9 11 - - -
26/02:00am - - - - - W 19 22 10 12 - - -
26/01:30am - - - - - W 19 22 10 12 - - -
26/01:00am - - - - - W 20 24 11 13 - - -
26/12:30am - - - - - W 19 24 10 13 - - -
26/12:00am - - - - - WSW 26 32 14 17 - - -
 
Date/Time
EDT
Temp
°C
App
Temp
°C
Dew
Point
Rel
Hum
%
Delta-T
°C
Wind Press
QNH
hPa
Press
MSL
hPa
Rain
since 9 am
mm
Dir
 
Spd
km/h
Gust
km/h
Spd
kts
Gust
kts
25/11:30pm - - - - - WSW 24 30 13 16 - - -
25/11:00pm - - - - - SW 24 30 13 16 - - -
25/10:30pm - - - - - SSW 28 35 15 19 - - -
25/10:00pm - - - - - SW 35 41 19 22 - - -
25/09:30pm - - - - - S 28 35 15 19 - - -
25/09:00pm - - - - - S 30 35 16 19 - - -
25/08:30pm - - - - - S 28 35 15 19 - - -
25/08:00pm - - - - - S 30 37 16 20 - - -
25/07:30pm - - - - - S 30 33 16 18 - - -
25/07:00pm - - - - - S 28 33 15 18 - - -
25/06:30pm - - - - - S 30 35 16 19 - - -
25/06:00pm - - - - - SSE 26 30 14 16 - - -
25/05:30pm - - - - - SSE 32 37 17 20 - - -
25/05:00pm - - - - - SSE 28 32 15 17 - - -
25/04:30pm - - - - - SSW 30 37 16 20 - - -
25/04:00pm - - - - - SSW 33 39 18 21 - - -
25/03:30pm - - - - - SSW 32 41 17 22 - - -
25/03:00pm - - - - - SW 35 52 19 28 - - -
25/02:56pm - - - - - SW 32 50 17 27 - - -
25/02:30pm - - - - - SW 32 37 17 20 - - -
25/02:00pm - - - - - SSW 30 39 16 21 - - -
25/01:30pm - - - - - SW 19 24 10 13 - - -
25/01:00pm - - - - - SW 30 41 16 22 - - -
25/12:30pm - - - - - SW 32 39 17 21 - - -
25/12:00pm - - - - - WSW 28 35 15 19 - - -
25/11:30am - - - - - SW 24 35 13 19 - - -
25/11:00am - - - - - WSW 26 35 14 19 - - -
25/10:30am - - - - - WSW 30 37 16 20 - - -
25/10:00am - - - - - WSW 32 43 17 23 - - -
25/09:30am - - - - - WSW 32 39 17 21 - - -
25/09:01am - - - - - WSW 32 50 17 27 - - -
25/09:00am - - - - - W 30 44 16 24 - - -
25/08:30am - - - - - W 28 35 15 19 - - -
25/08:00am - - - - - WNW 26 32 14 17 - - -
25/07:30am - - - - - WNW 20 32 11 17 - - -
25/07:00am - - - - - WNW 20 28 11 15 - - -
25/06:30am - - - - - WNW 24 30 13 16 - - -
25/06:00am - - - - - WNW 24 30 13 16 - - -
25/05:30am - - - - - WNW 24 30 13 16 - - -
25/05:00am - - - - - WNW 26 32 14 17 - - -
25/04:30am - - - - - W 22 28 12 15 - - -
25/04:00am - - - - - W 28 37 15 20 - - -
25/03:30am - - - - - W 32 41 17 22 - - -
25/03:00am - - - - - W 24 33 13 18 - - -
25/02:30am - - - - - WNW 24 32 13 17 - - -
25/02:00am - - - - - WNW 20 24 11 13 - - -
25/01:30am - - - - - WNW 24 28 13 15 - - -
25/01:00am - - - - - W 28 33 15 18 - - -
25/12:30am - - - - - W 26 32 14 17 - - -
25/12:00am - - - - - W 32 39 17 21 - - -
 
Date/Time
EDT
Temp
°C
App
Temp
°C
Dew
Point
Rel
Hum
%
Delta-T
°C
Wind Press
QNH
hPa
Press
MSL
hPa
Rain
since 9 am
mm
Dir
 
Spd
km/h
Gust
km/h
Spd
kts
Gust
kts
24/11:30pm - - - - - WSW 30 41 16 22 - - -
24/11:00pm - - - - - W 26 33 14 18 - - -
24/10:30pm - - - - - WSW 28 39 15 21 - - -
24/10:00pm - - - - - W 20 26 11 14 - - -
24/09:30pm - - - - - WSW 30 39 16 21 - - -
24/09:00pm - - - - - WSW 24 30 13 16 - - -
24/08:55pm - - - - - WSW 24 28 13 15 - - -
24/08:30pm - - - - - SSW 37 44 20 24 - - -
24/08:00pm - - - - - SSW 41 50 22 27 - - -
24/07:58pm - - - - - SSW 41 50 22 27 - - -
24/07:30pm - - - - - WSW 37 50 20 27 - - -
24/07:08pm - - - - - WSW 44 52 24 28 - - -
24/07:00pm - - - - - SSW 44 50 24 27 - - -
24/06:30pm - - - - - S 43 56 23 30 - - -
24/06:22pm - - - - - S 37 48 20 26 - - -
24/06:00pm - - - - - SW 24 30 13 16 - - -
24/05:30pm - - - - - SW 33 39 18 21 - - -
24/05:00pm - - - - - WSW 35 41 19 22 - - -
24/04:30pm - - - - - WSW 44 52 24 28 - - -
24/04:06pm - - - - - SW 44 50 24 27 - - -
24/04:00pm - - - - - SW 17 28 9 15 - - -
24/03:30pm - - - - - WSW 7 9 4 5 - - -
24/03:00pm - - - - - SSW 26 32 14 17 - - -
24/02:30pm - - - - - SSW 35 44 19 24 - - -
24/02:20pm - - - - - SW 28 30 15 16 - - -
24/02:00pm - - - - - SW 6 7 3 4 - - -
24/01:30pm - - - - - ENE 11 19 6 10 - - -
24/01:00pm - - - - - SSE 9 13 5 7 - - -
24/12:30pm - - - - - ENE 11 17 6 9 - - -
24/12:00pm - - - - - ESE 9 13 5 7 - - -
24/11:30am - - - - - E 9 13 5 7 - - -
24/11:00am - - - - - SE 6 13 3 7 - - -
24/10:30am - - - - - E 6 9 3 5 - - -
24/10:00am - - - - - SSW 6 9 3 5 - - -
24/09:30am - - - - - SSW 15 20 8 11 - - -
24/09:00am - - - - - SSW 22 28 12 15 - - -
24/08:46am - - - - - SSW 24 32 13 17 - - -
24/08:33am - - - - - SW 48 67 26 36 - - -
24/08:30am - - - - - WSW 57 67 31 36 - - -
24/08:29am - - - - - WSW 57 67 31 36 - - -
24/08:28am - - - - - WSW 26 67 14 36 - - -
24/08:23am - - - - - W 28 37 15 20 - - -
24/08:00am - - - - - NNE 7 13 4 7 - - -
24/07:30am - - - - - NE 6 13 3 7 - - -
24/07:00am - - - - - NE 9 13 5 7 - - -
24/06:30am - - - - - ENE 2 4 1 2 - - -
24/06:00am - - - - - N 9 11 5 6 - - -
24/05:30am - - - - - N 6 9 3 5 - - -
24/05:00am - - - - - NNW 4 9 2 5 - - -
24/04:30am - - - - - NE 4 7 2 4 - - -
24/04:00am - - - - - ENE 6 7 3 4 - - -
24/03:30am - - - - - S 2 4 1 2 - - -
24/03:00am - - - - - N 2 6 1 3 - - -
24/02:30am - - - - - N 4 6 2 3 - - -
24/02:00am - - - - - E 2 4 1 2 - - -
24/01:30am - - - - - ENE 6 9 3 5 - - -
24/01:00am - - - - - E 9 11 5 6 - - -
24/12:30am - - - - - ESE 7 11 4 6 - - -
24/12:00am - - - - - SE 9 15 5 8 - - -
 
Date/Time
EDT
Temp
°C
App
Temp
°C
Dew
Point
Rel
Hum
%
Delta-T
°C
Wind Press
QNH
hPa
Press
MSL
hPa
Rain
since 9 am
mm
Dir
 
Spd
km/h
Gust
km/h
Spd
kts
Gust
kts
23/11:30pm - - - - - SE 9 13 5 7 - - -
23/11:00pm - - - - - ESE 9 15 5 8 - - -
23/10:30pm - - - - - SSE 15 20 8 11 - - -
23/10:00pm - - - - - SSE 17 22 9 12 - - -
23/09:30pm - - - - - SE 15 20 8 11 - - -
23/09:00pm - - - - - SE 17 22 9 12 - - -
23/08:30pm - - - - - SSE 17 22 9 12 - - -
23/08:00pm - - - - - SE 17 24 9 13 - - -
23/07:30pm - - - - - SE 15 20 8 11 - - -
23/07:00pm - - - - - SE 17 20 9 11 - - -
23/06:30pm - - - - - S 28 33 15 18 - - -
23/06:00pm - - - - - S 28 33 15 18 - - -
23/05:30pm - - - - - S 26 28 14 15 - - -
23/05:00pm - - - - - S 30 35 16 19 - - -
23/04:30pm - - - - - S 30 35 16 19 - - -

Other Formats:

Comma delimited format used in spreadsheet applications
http://www.bom.gov.au/fwo/IDV60801/IDV60801.95864.axf

JavaScript Object Notation format (JSON) in row-major order
http://www.bom.gov.au/fwo/IDV60801/IDV60801.95864.json